Latest Coastal Weather Observations for Truscott

IDD60701

Issued at 5:51 pm CST Friday 18 September 2020 (issued every 10 minutes, with the page automatically refreshed every 10 minutes)

About coastal observations | Map of coastal stations | Coastal observations for NT | Marine services | Other Formats
Station Details ID: 001020 Name: TRUSCOTT Lat: -14.09 Lon: 126.39 Height: 51.0 m
Data from the previous 72 hours. | See also: Recent months at Truscott
Date/Time
CST
Wind Sea
Height
m
Swell Vis
km
Cloud Weather Temp
°C
Press
hPa
Rain since
9am
mm
Dir  Spd
kts
Gust
kts
Height
m
Period
s
Dir
18/05:30pm NNW 10 15 - - - - 10 - - 29.2 1010.3 0.0
18/05:00pm NNW 10 16 - - - - 10 - - 29.6 1010.1 0.0
18/04:30pm N 10 16 - - - - 10 - - 30.4 1009.7 0.0
18/04:00pm NNW 10 17 - - - - 10 - - 30.6 1010.0 0.0
18/03:30pm N 10 14 - - - - 10 - - 30.7 1010.2 0.0
18/03:00pm NNW 10 15 - - - - 10 - - 31.2 1010.5 0.0
18/02:30pm NNW 9 14 - - - - 10 - - 31.7 1010.8 0.0
18/02:00pm NNW 9 14 - - - - 10 - - 31.9 1011.2 0.0
18/01:30pm WNW 9 13 - - - - 10 - - 33.1 1011.3 0.0
18/01:00pm W 9 11 - - - - 10 - - 32.6 1012.0 0.0
18/12:30pm WNW 7 10 - - - - 10 - - 32.5 1012.5 0.0
18/12:00pm NW 8 11 - - - - 10 - - 32.6 1012.7 0.0
18/11:30am WSW 6 14 - - - - 10 - - 32.1 1013.3 0.0
18/11:00am SSW 5 11 - - - - 10 - - 32.0 1013.6 0.0
18/10:30am SW 7 12 - - - - 10 - - 31.2 1013.7 0.0
18/10:00am SW 5 9 - - - - 10 - - 30.2 1013.9 0.0
18/09:30am SW 5 8 - - - - 10 - - 29.4 1013.7 0.0
18/09:00am SW 5 7 - - - - 10 - - 28.0 1013.6 0.0
18/08:30am SSW 6 9 - - - - 10 - - 26.7 1013.3 0.0
18/08:00am SW 5 7 - - - - 10 - - 25.0 1013.1 0.0
18/07:30am SSW 5 7 - - - - 10 - - 24.5 1012.4 0.0
18/07:00am SSW 5 6 - - - - 10 - - 24.1 1012.4 0.0
18/06:30am SSW 4 5 - - - - 10 - - 24.1 1012.2 0.0
18/06:00am SSW 4 5 - - - - 10 - - 24.2 1011.9 0.0
18/05:30am SW 3 4 - - - - 10 - - 24.3 1011.7 0.0
18/05:00am SW 4 5 - - - - 10 - - 24.3 1011.4 0.0
18/04:30am SW 4 5 - - - - 10 - - 24.4 1011.3 0.0
18/04:00am SW 4 5 - - - - 10 - - 24.6 1011.6 0.0
18/03:30am SSW 4 5 - - - - 10 - - 24.6 1011.7 0.0
18/03:00am SSW 4 5 - - - - 10 - - 24.9 1011.9 0.0
18/02:30am SW 3 5 - - - - 10 - - 25.2 1012.1 0.0
18/02:00am WSW 3 5 - - - - 10 - - 25.2 1012.3 0.0
18/01:30am WSW 4 6 - - - - 10 - - 25.6 1012.3 0.0
18/01:00am WSW 4 6 - - - - 10 - - 25.5 1012.9 0.0
18/12:30am WSW 5 6 - - - - 10 - - 25.7 1012.9 0.0
18/12:00am W 4 5 - - - - 10 - - 25.5 1013.0 0.0
 
Date/Time
CST
Wind Sea
Height
m
Swell Vis
km
Cloud Weather Temp
°C
Press
hPa
Rain since
9am
mm
Dir  Spd
kts
Gust
kts
Height
m
Period
s
Dir
17/11:30pm WSW 3 5 - - - - 10 - - 25.6 1013.2 0.0
17/11:00pm CALM 0 2 - - - - 10 - - 25.5 1013.3 0.0
17/10:30pm SW 4 5 - - - - 10 - - 26.1 1013.0 0.0
17/10:00pm WNW 4 5 - - - - 10 - - 26.1 1013.0 0.0
17/09:30pm NW 4 6 - - - - 10 - - 26.3 1012.9 0.0
17/09:00pm NW 4 6 - - - - 10 - - 26.4 1012.6 0.0
17/08:30pm NW 5 6 - - - - 10 - - 26.6 1012.4 0.0
17/08:00pm NW 5 8 - - - - 10 - - 26.8 1012.1 0.0
17/07:30pm NW 5 8 - - - - 10 - - 27.0 1011.6 0.0
17/07:00pm NNW 6 9 - - - - 10 - - 27.4 1011.4 0.0
17/06:30pm NNW 8 12 - - - - 10 - - 28.1 1011.1 0.0
17/06:00pm NNW 9 14 - - - - 10 - - 28.5 1010.6 0.0
17/05:30pm NNW 10 15 - - - - 10 - - 29.0 1010.2 0.0
17/05:00pm NNW 9 15 - - - - 10 - - 29.2 1010.2 0.0
17/04:30pm NNW 9 14 - - - - 10 - - 29.3 1010.2 0.0
17/04:00pm N 11 15 - - - - 10 - - 29.6 1010.5 0.0
17/03:30pm N 9 17 - - - - 10 - - 30.9 1010.7 0.0
17/03:00pm N 10 14 - - - - 10 - - 29.8 1011.0 0.0
17/02:30pm NNW 10 14 - - - - 10 - - 30.7 1011.3 0.0
17/02:00pm N 10 15 - - - - 10 - - 31.1 1011.6 0.0
17/01:30pm NNW 9 13 - - - - 10 - - 31.0 1011.9 0.0
17/01:00pm NW 7 11 - - - - 10 Partly cloudy - 31.2 1012.6 0.0
17/12:30pm WNW 8 11 - - - - 10 - - 31.2 1013.2 0.0
17/12:00pm WNW 8 12 - - - - 10 Partly cloudy - 30.7 1013.7 0.0
17/11:30am W 6 10 - - - - 10 - - 30.1 1014.0 0.0
17/11:00am WNW 7 12 - - - - 10 Partly cloudy - 29.6 1014.3 0.0
17/10:30am WNW 7 10 - - - - 10 - - 29.7 1014.2 0.0
17/10:00am W 7 11 - - - - 10 Partly cloudy - 28.2 1014.4 0.0
17/09:30am WNW 6 8 - - - - 10 Partly cloudy - 27.6 1014.3 0.0
17/09:00am WNW 5 7 - - - - 10 - - 27.5 1014.0 0.0
17/08:30am WNW 1 4 - - - - 10 - - 26.5 1013.7 0.0
17/08:00am CALM 0 0 - - - - 10 - - 24.9 1013.4 0.0
17/07:30am CALM 0 0 - - - - 10 - - 22.8 1012.6 0.0
17/07:00am SSW 3 3 - - - - 10 - - 21.8 1012.4 0.0
17/06:30am SSW 2 3 - - - - 10 - - 22.0 1011.9 0.0
17/06:00am SSW 4 5 - - - - 10 - - 23.0 1011.6 0.0
17/05:30am SSW 4 5 - - - - 10 - - 22.8 1011.4 0.0
17/05:00am SSW 3 4 - - - - 10 - - 22.9 1011.3 0.0
17/04:30am SSW 4 6 - - - - 10 - - 23.7 1011.0 0.0
17/04:00am SW 3 4 - - - - 10 - - 23.5 1011.4 0.0
17/03:30am SW 4 6 - - - - 10 - - 24.7 1011.5 0.0
17/03:00am WSW 5 6 - - - - 10 - - 25.1 1011.8 0.0
17/02:30am WSW 5 6 - - - - 10 - - 25.1 1012.0 0.0
17/02:00am WSW 4 6 - - - - 10 - - 25.1 1012.2 0.0
17/01:30am WSW 3 5 - - - - 10 - - 25.0 1012.3 0.0
17/01:00am WSW 2 4 - - - - 10 - - 24.6 1013.0 0.0
17/12:30am WSW 3 4 - - - - 10 - - 25.0 1013.3 0.0
17/12:00am W 3 4 - - - - 10 - - 25.5 1013.6 0.0
 
Date/Time
CST
Wind Sea
Height
m
Swell Vis
km
Cloud Weather Temp
°C
Press
hPa
Rain since
9am
mm
Dir  Spd
kts
Gust
kts
Height
m
Period
s
Dir
16/11:30pm WNW 3 5 - - - - 10 Partly cloudy - 25.6 1013.7 0.0
16/11:00pm NW 1 4 - - - - 10 Partly cloudy - 25.2 1013.8 0.0
16/10:30pm CALM 0 0 - - - - 10 Mostly clear - 25.3 1013.6 0.0
16/10:00pm NW 3 4 - - - - 10 Partly cloudy - 25.8 1013.6 0.0
16/09:30pm WNW 3 4 - - - - 10 Partly cloudy - 26.2 1013.5 0.0
16/09:00pm NW 4 5 - - - - 10 - - 26.4 1013.3 0.0
16/08:30pm NW 4 7 - - - - 10 - - 26.7 1013.0 0.0
16/08:00pm NNW 4 7 - - - - 10 - - 26.9 1012.5 0.0
16/07:30pm N 6 8 - - - - 10 - - 27.2 1011.8 0.0
16/07:00pm N 7 12 - - - - 10 - - 27.6 1011.6 0.0
16/06:30pm N 6 11 - - - - 10 - - 28.5 1011.3 0.0
16/06:00pm N 7 11 - - - - 10 - - 29.1 1010.9 0.0
16/05:30pm NNW 9 13 - - - - 10 - - 29.1 1010.7 0.0
16/05:00pm NNW 8 12 - - - - 10 - - 29.4 1010.7 0.0
16/04:30pm NNW 9 15 - - - - 10 - - 29.9 1010.4 0.0
16/04:00pm NW 9 13 - - - - 10 - - 29.8 1010.8 0.0
16/03:30pm NNW 9 13 - - - - 10 - - 30.4 1010.9 0.0
16/03:00pm NNW 8 12 - - - - 10 - - 31.5 1011.3 0.0
16/02:30pm NNW 9 14 - - - - 10 - - 30.8 1011.8 0.0
16/02:00pm NNW 9 14 - - - - 10 - - 30.8 1012.2 0.0
16/01:30pm NNW 9 13 - - - - 10 - - 30.6 1012.5 0.0
16/01:00pm NNW 8 12 - - - - 10 Partly cloudy - 31.4 1013.1 0.0
16/12:30pm NNW 8 15 - - - - 10 Partly cloudy - 30.9 1013.6 0.0
16/12:00pm NNW 7 12 - - - - 10 Partly cloudy - 31.4 1014.0 0.0
16/11:30am W 6 11 - - - - 10 Partly cloudy - 29.6 1014.4 0.0
16/11:00am NW 6 10 - - - - 10 Partly cloudy - 29.3 1014.7 0.0
16/10:30am WNW 6 11 - - - - 10 Mostly clear - 29.4 1014.6 0.0
16/10:00am WNW 5 11 - - - - 10 Partly cloudy - 29.5 1014.7 0.0
16/09:30am W 6 9 - - - - 10 Partly cloudy - 28.9 1014.6 0.0
16/09:00am WSW 7 8 - - - - 10 - - 27.8 1014.3 0.0
16/08:30am SW 5 8 - - - - 10 Partly cloudy - 27.2 1013.9 0.0
16/08:00am SW 4 5 - - - - 10 Partly cloudy - 25.8 1013.6 0.0
16/07:30am SSW 4 5 - - - - 10 - - 24.7 1013.1 0.0
16/07:00am SW 4 6 - - - - 10 Partly cloudy - 24.6 1012.9 0.0
16/06:30am WSW 4 6 - - - - 10 Partly cloudy - 25.0 1012.3 0.0
16/06:00am WSW 5 7 - - - - 10 Partly cloudy - 25.1 1012.2 0.0
16/05:30am W 4 6 - - - - 10 Partly cloudy - 25.0 1011.9 0.0
16/05:00am WSW 4 6 - - - - 10 Partly cloudy - 25.1 1011.8 0.0
16/04:30am WNW 3 5 - - - - 10 Mostly clear - 23.2 1011.8 0.0
16/04:00am CALM 0 0 - - - - 10 Partly cloudy - 23.0 1012.1 0.0
16/03:30am CALM 0 0 - - - - 10 Partly cloudy - 23.0 1012.1 0.0
16/03:00am CALM 0 0 - - - - 10 Partly cloudy - 23.0 1012.0 0.0
16/02:30am NNE 1 3 - - - - 10 Partly cloudy - 23.3 1012.3 0.0
16/02:00am SSW 3 5 - - - - 10 - - 24.7 1012.6 0.0
16/01:30am SW 6 7 - - - - 10 - - 25.2 1012.3 0.0
16/01:00am SW 5 7 - - - - 10 - - 25.2 1012.8 0.0
16/12:30am SW 5 6 - - - - 10 Partly cloudy - 25.3 1013.1 0.0
16/12:00am WSW 5 7 - - - - 10 Partly cloudy - 25.5 1013.3 0.0
 
Date/Time
CST
Wind Sea
Height
m
Swell Vis
km
Cloud Weather Temp
°C
Press
hPa
Rain since
9am
mm
Dir  Spd
kts
Gust
kts
Height
m
Period
s
Dir
15/11:30pm WSW 5 7 - - - - 10 Partly cloudy - 25.5 1013.4 0.0
15/11:00pm WSW 5 7 - - - - 10 - - 25.7 1013.6 0.0
15/10:30pm WSW 4 7 - - - - 10 - - 25.9 1013.4 0.0
15/10:00pm WSW 3 5 - - - - 10 - - 25.6 1013.5 0.0
15/09:30pm WNW 4 5 - - - - 10 - - 25.5 1013.2 0.0
15/09:00pm WNW 3 4 - - - - 10 - - 25.6 1012.9 0.0
15/08:30pm NW 4 5 - - - - 10 - - 25.8 1012.7 0.0
15/08:00pm NW 4 5 - - - - 10 - - 26.3 1012.4 0.0
15/07:30pm NW 4 6 - - - - 10 - - 26.8 1011.8 0.0

Other formats

Comma delimited format used in spreadsheet applications
http://www.bom.gov.au/fwo/IDD60701/IDD60701.95101.axf

JavaScript Object Notation format (JSON) in row-major order
http://www.bom.gov.au/fwo/IDD60701/IDD60701.95101.json

Data quality

Most of these data are generated automatically and are frequently updated. Quality checks on data are not normally performed. It is possible for incorrect values to appear. Refer to information at About Latest Weather Observations and please check the disclaimer before using these data.